createdAt,value
2019-02-27T00:01:57.481Z,11.90
2019-02-27T00:04:26.131Z,11.77
2019-02-27T00:06:54.727Z,12.83
2019-02-27T00:09:22.621Z,14.37
2019-02-27T00:11:50.623Z,12.87
2019-02-27T00:14:19.196Z,11.47
2019-02-27T00:16:47.086Z,11.67
2019-02-27T00:19:15.716Z,12.67
2019-02-27T00:21:44.391Z,12.30
2019-02-27T00:24:12.683Z,11.63
2019-02-27T00:26:42.539Z,11.43
2019-02-27T00:29:17.862Z,10.80
2019-02-27T00:31:46.303Z,11.40
2019-02-27T00:34:14.550Z,10.37
2019-02-27T00:36:45.072Z,10.23
2019-02-27T00:39:19.684Z,11.73
2019-02-27T00:41:47.642Z,12.07
2019-02-27T00:44:15.414Z,11.37
2019-02-27T00:46:46.099Z,10.93
2019-02-27T00:49:20.087Z,11.20
2019-02-27T00:51:48.029Z,11.23
2019-02-27T00:54:16.226Z,9.83
2019-02-27T00:56:45.001Z,10.20
2019-02-27T00:59:20.875Z,11.67
2019-02-27T01:01:48.799Z,12.07
2019-02-27T01:04:17.467Z,11.90
2019-02-27T01:06:47.462Z,11.87
2019-02-27T01:09:25.561Z,10.73
2019-02-27T01:11:54.257Z,10.43
2019-02-27T01:14:22.529Z,10.23
2019-02-27T01:16:51.121Z,10.97
2019-02-27T01:19:19.740Z,10.60
2019-02-27T01:21:48.425Z,10.43
2019-02-27T01:24:17.543Z,9.77
2019-02-27T01:26:56.041Z,10.27
2019-02-27T01:29:23.938Z,12.80
2019-02-27T01:31:54.994Z,11.53
2019-02-27T01:34:28.439Z,9.63
2019-02-27T01:36:58.061Z,12.10
2019-02-27T01:39:34.316Z,10.57
2019-02-27T01:42:02.501Z,10.03
2019-02-27T01:44:30.460Z,10.33
2019-02-27T01:47:01.831Z,9.97
2019-02-27T01:49:38.675Z,9.13
2019-02-27T01:52:06.456Z,8.27
2019-02-27T01:54:34.660Z,8.33
2019-02-27T01:57:03.601Z,8.33
2019-02-27T01:59:32.239Z,7.40
2019-02-27T02:02:01.080Z,7.47
2019-02-27T02:04:37.007Z,7.33
2019-02-27T02:07:06.669Z,7.70
2019-02-27T02:10:00.986Z,8.53
2019-02-27T02:12:31.206Z,7.90
2019-02-27T02:15:20.872Z,8.20
2019-02-27T02:18:27.568Z,9.67
2019-02-27T02:21:34.983Z,8.80
2019-02-27T02:24:41.313Z,8.80
2019-02-27T02:27:47.716Z,10.00
2019-02-27T02:30:54.287Z,9.50
2019-02-27T02:34:05.150Z,8.30
2019-02-27T02:37:08.910Z,9.30
2019-02-27T02:40:15.533Z,10.37
2019-02-27T02:43:09.031Z,10.73
2019-02-27T02:46:15.677Z,9.87
2019-02-27T02:49:22.041Z,9.33
2019-02-27T02:52:28.709Z,9.77
2019-02-27T02:55:35.475Z,9.40
2019-02-27T02:58:47.187Z,9.17
2019-02-27T03:01:49.297Z,8.60
2019-02-27T03:04:56.533Z,9.27
2019-02-27T03:07:52.881Z,9.40
2019-02-27T03:10:43.754Z,8.47
2019-02-27T03:13:50.548Z,9.57
2019-02-27T03:16:57.199Z,8.53
2019-02-27T03:19:41.299Z,9.20
2019-02-27T03:22:40.165Z,8.87
2019-02-27T03:25:52.966Z,8.13
2019-02-27T03:28:59.365Z,9.10
2019-02-27T03:32:05.718Z,9.10
2019-02-27T03:35:12.347Z,9.73
2019-02-27T03:38:02.486Z,9.40
2019-02-27T03:41:08.862Z,8.30
2019-02-27T03:44:20.230Z,9.50
2019-02-27T03:47:17.401Z,9.27
2019-02-27T03:49:57.237Z,9.13
2019-02-27T03:52:58.661Z,9.37
2019-02-27T03:56:08.570Z,10.97
2019-02-27T03:59:19.367Z,10.70
2019-02-27T04:02:26.050Z,10.40
2019-02-27T04:05:19.208Z,12.20
2019-02-27T04:08:26.050Z,13.57
2019-02-27T04:10:54.635Z,14.00
2019-02-27T04:13:42.249Z,13.67
2019-02-27T04:19:12.158Z,9.30
2019-02-27T04:21:40.395Z,8.60
2019-02-27T04:24:08.848Z,9.43
2019-02-27T04:26:41.472Z,8.47
2019-02-27T04:29:14.189Z,8.33
2019-02-27T04:31:42.582Z,8.80
2019-02-27T04:34:10.159Z,8.10
2019-02-27T04:36:38.748Z,7.10
2019-02-27T04:39:07.434Z,7.90
2019-02-27T04:41:35.588Z,8.40
2019-02-27T04:44:06.023Z,8.70
2019-02-27T04:46:43.681Z,8.60
2019-02-27T04:49:11.606Z,8.50
2019-02-27T04:51:39.136Z,8.13
2019-02-27T04:54:07.680Z,8.20
2019-02-27T04:56:35.880Z,7.80
2019-02-27T04:59:04.431Z,8.30
2019-02-27T05:01:36.339Z,7.97
2019-02-27T05:04:08.878Z,8.43
2019-02-27T05:06:37.157Z,7.97
2019-02-27T05:09:46.689Z,8.10
2019-02-27T05:12:14.813Z,8.03
2019-02-27T05:14:43.356Z,8.10
2019-02-27T05:17:11.978Z,7.67
2019-02-27T05:19:40.634Z,8.77
2019-02-27T05:22:08.883Z,8.93
2019-02-27T05:24:40.822Z,8.73
2019-02-27T05:27:14.015Z,8.27
2019-02-27T05:29:54.386Z,8.43
2019-02-27T05:32:25.304Z,8.40
2019-02-27T05:34:59.167Z,9.80
2019-02-27T05:37:27.053Z,8.90
2019-02-27T05:39:55.740Z,8.07
2019-02-27T05:42:23.922Z,7.93
2019-02-27T05:44:55.602Z,7.57
2019-02-27T05:47:47.819Z,7.20
2019-02-27T05:50:35.432Z,8.10
2019-02-27T05:53:03.628Z,9.93
2019-02-27T05:55:31.501Z,9.90
2019-02-27T05:57:59.368Z,8.27
2019-02-27T06:00:28.363Z,8.67
2019-02-27T06:02:56.928Z,8.50
2019-02-27T06:05:36.747Z,8.83
2019-02-27T06:08:05.482Z,8.03
2019-02-27T06:10:34.003Z,9.80
2019-02-27T06:13:02.141Z,10.00
2019-02-27T06:15:30.769Z,10.13
2019-02-27T06:17:59.067Z,9.33
2019-02-27T06:20:27.451Z,9.27
2019-02-27T06:22:55.270Z,7.80
2019-02-27T06:25:24.027Z,8.50
2019-02-27T06:28:00.228Z,7.23
2019-02-27T06:30:40.276Z,8.50
2019-02-27T06:33:11.635Z,9.87
2019-02-27T06:35:45.856Z,9.03
2019-02-27T06:38:14.358Z,9.10
2019-02-27T06:40:42.951Z,9.60
2019-02-27T06:43:11.304Z,12.57
2019-02-27T06:45:39.905Z,13.20
2019-02-27T06:48:10.269Z,13.40
2019-02-27T06:50:45.267Z,12.57
2019-02-27T06:53:16.416Z,11.83
2019-02-27T06:55:44.091Z,10.47
2019-02-27T06:58:14.775Z,10.27
2019-02-27T07:00:52.681Z,9.73
2019-02-27T07:03:21.248Z,8.93
2019-02-27T07:05:49.581Z,8.50
2019-02-27T07:08:17.917Z,7.80
2019-02-27T07:10:46.146Z,7.90
2019-02-27T07:13:14.630Z,8.70
2019-02-27T07:15:47.755Z,8.93
2019-02-27T07:18:13.810Z,8.33
2019-02-27T07:20:42.064Z,8.53
2019-02-27T07:23:10.023Z,7.77
2019-02-27T07:25:41.909Z,8.13
2019-02-27T07:28:14.452Z,9.40
2019-02-27T07:30:43.282Z,9.57
2019-02-27T07:33:11.135Z,9.80
2019-02-27T07:35:38.716Z,19.20
2019-02-27T07:38:07.393Z,14.77
2019-02-27T07:40:35.358Z,12.23
2019-02-27T07:43:05.769Z,11.63
2019-02-27T07:45:42.810Z,11.83
2019-02-27T07:48:17.204Z,11.70
2019-02-27T07:50:48.367Z,11.97
2019-02-27T07:53:21.750Z,10.93
2019-02-27T07:55:50.258Z,10.30
2019-02-27T07:58:18.627Z,9.27
2019-02-27T08:00:47.194Z,9.50
2019-02-27T08:03:23.153Z,9.47
2019-02-27T08:05:51.679Z,8.87
2019-02-27T08:08:23.215Z,10.60
2019-02-27T08:10:57.126Z,9.13
2019-02-27T08:13:27.005Z,9.77
2019-02-27T08:16:02.305Z,14.80
2019-02-27T08:18:33.706Z,22.57
2019-02-27T08:21:00.436Z,16.20
2019-02-27T08:23:28.417Z,14.90
2019-02-27T08:25:56.742Z,11.43
2019-02-27T08:28:24.926Z,10.90
2019-02-27T08:30:52.778Z,10.90
2019-02-27T08:33:21.064Z,9.33
2019-02-27T08:35:49.266Z,8.77
2019-02-27T08:38:18.055Z,8.40
2019-02-27T08:40:46.223Z,8.67
2019-02-27T08:43:14.948Z,10.03
2019-02-27T08:45:43.290Z,9.30
2019-02-27T08:48:11.577Z,9.37
2019-02-27T08:50:39.754Z,10.57
2019-02-27T08:53:08.357Z,11.07
2019-02-27T08:55:39.207Z,11.83
2019-02-27T08:58:13.656Z,12.33
2019-02-27T09:00:53.908Z,11.83
2019-02-27T09:06:30.962Z,10.93
2019-02-27T09:08:59.173Z,11.23
2019-02-27T09:11:27.409Z,10.00
2019-02-27T09:17:35.799Z,9.77
2019-02-27T09:20:23.128Z,9.40
2019-02-27T09:23:31.730Z,10.00
2019-02-27T09:32:03.004Z,9.73
2019-02-27T09:34:31.322Z,10.03
2019-02-27T09:36:59.757Z,9.73
2019-02-27T09:39:31.212Z,10.60
2019-02-27T09:42:04.223Z,10.57
2019-02-27T09:44:36.106Z,9.67
2019-02-27T09:47:09.685Z,8.50
2019-02-27T09:49:40.771Z,9.20
2019-02-27T09:52:15.150Z,8.63
2019-02-27T09:54:46.770Z,9.00
2019-02-27T09:57:20.507Z,8.13
2019-02-27T09:59:51.161Z,8.17
2019-02-27T10:02:26.276Z,8.70
2019-02-27T10:04:54.878Z,8.63
2019-02-27T10:07:23.569Z,8.40
2019-02-27T10:09:52.171Z,8.70
2019-02-27T10:12:20.110Z,7.70
2019-02-27T10:14:50.259Z,7.00
2019-02-27T10:17:25.158Z,7.50
2019-02-27T10:19:53.772Z,6.53
2019-02-27T10:22:22.293Z,6.93
2019-02-27T10:24:50.630Z,6.13
2019-02-27T10:27:19.222Z,5.95
2019-02-27T10:30:11.557Z,5.65
2019-02-27T10:32:43.878Z,5.83
2019-02-27T10:38:26.163Z,5.65
2019-02-27T10:41:13.968Z,5.12
2019-02-27T10:43:42.654Z,4.17
2019-02-27T10:46:11.246Z,4.05
2019-02-27T10:48:39.833Z,2.72
2019-02-27T10:51:09.450Z,3.20
2019-02-27T10:53:38.418Z,3.15
2019-02-27T10:56:07.147Z,3.35
2019-02-27T10:58:35.832Z,3.60
2019-02-27T11:01:03.802Z,3.42
2019-02-27T11:03:32.392Z,3.42
2019-02-27T11:06:00.336Z,4.33
2019-02-27T11:08:29.586Z,2.50
2019-02-27T11:10:57.863Z,2.80
2019-02-27T11:13:26.555Z,3.55
2019-02-27T11:15:55.152Z,4.30
2019-02-27T11:18:23.590Z,3.92
2019-02-27T11:20:51.843Z,4.80
2019-02-27T11:23:19.669Z,3.90
2019-02-27T11:25:48.061Z,3.22
2019-02-27T11:28:16.303Z,3.20
2019-02-27T11:30:44.976Z,3.17
2019-02-27T11:33:24.747Z,3.77
2019-02-27T11:35:49.387Z,3.40
2019-02-27T11:38:18.013Z,3.00
2019-02-27T11:40:46.443Z,3.80
2019-02-27T11:43:14.728Z,3.63
2019-02-27T11:45:43.340Z,4.07
2019-02-27T11:48:11.327Z,5.07
2019-02-27T11:50:39.533Z,3.40
2019-02-27T11:53:08.128Z,2.90
2019-02-27T11:55:36.457Z,3.07
2019-02-27T11:58:05.633Z,4.00
2019-02-27T12:00:34.081Z,2.40
2019-02-27T12:03:02.039Z,3.20
2019-02-27T12:05:34.041Z,2.70
2019-02-27T12:08:01.338Z,2.93
2019-02-27T12:16:26.042Z,2.50
2019-02-27T12:22:21.834Z,1.90
2019-02-27T12:24:52.849Z,2.20
2019-02-27T12:27:48.777Z,2.17
2019-02-27T12:30:14.058Z,1.70
2019-02-27T12:32:42.835Z,2.00
2019-02-27T12:35:55.508Z,1.67
2019-02-27T12:41:43.977Z,2.17
2019-02-27T12:44:11.905Z,2.17
2019-02-27T12:46:39.831Z,1.80
2019-02-27T12:49:08.040Z,2.53
2019-02-27T12:51:38.355Z,2.17
2019-02-27T12:54:06.556Z,2.20
2019-02-27T12:56:35.006Z,2.20
2019-02-27T12:59:03.287Z,1.90
2019-02-27T13:01:31.797Z,2.10
2019-02-27T13:03:59.644Z,1.50
2019-02-27T13:06:27.395Z,1.77
2019-02-27T13:08:55.949Z,1.53
2019-02-27T13:11:35.381Z,1.92
2019-02-27T13:14:03.317Z,2.10
2019-02-27T13:16:31.604Z,1.90
2019-02-27T13:18:59.767Z,3.25
2019-02-27T13:21:27.990Z,3.12
2019-02-27T13:23:55.894Z,3.70
2019-02-27T13:26:24.508Z,2.60
2019-02-27T13:28:52.379Z,2.08
2019-02-27T13:31:21.064Z,3.77
2019-02-27T13:33:49.694Z,5.93
2019-02-27T13:36:17.948Z,2.60
2019-02-27T13:38:46.422Z,2.12
2019-02-27T13:41:15.499Z,2.58
2019-02-27T13:43:44.131Z,2.30
2019-02-27T13:46:12.662Z,2.00
2019-02-27T13:48:41.215Z,3.75
2019-02-27T13:51:09.377Z,3.25
2019-02-27T13:53:36.935Z,6.30
2019-02-27T13:56:05.630Z,5.08
2019-02-27T13:58:36.501Z,5.35
2019-02-27T14:01:04.249Z,4.70
2019-02-27T14:03:32.454Z,5.90
2019-02-27T14:06:00.829Z,6.37
2019-02-27T14:08:32.147Z,5.75
2019-02-27T14:11:00.038Z,5.62
2019-02-27T14:13:28.321Z,5.30
2019-02-27T14:15:58.081Z,4.85
2019-02-27T14:18:33.170Z,4.85
2019-02-27T14:21:01.689Z,4.15
2019-02-27T14:23:41.553Z,3.30
2019-02-27T14:26:09.709Z,3.30
2019-02-27T14:28:38.280Z,3.58
2019-02-27T14:31:09.013Z,3.52
2019-02-27T14:33:43.552Z,3.87
2019-02-27T14:36:11.819Z,4.28
2019-02-27T14:38:39.705Z,4.10
2019-02-27T14:41:08.415Z,4.05
2019-02-27T14:43:36.964Z,3.95
2019-02-27T14:46:04.894Z,4.00
2019-02-27T14:48:33.069Z,4.00
2019-02-27T14:51:01.317Z,4.03
2019-02-27T14:53:29.480Z,3.60
2019-02-27T14:55:57.813Z,3.92
2019-02-27T14:58:26.058Z,4.97
2019-02-27T15:00:54.832Z,3.80
2019-02-27T15:03:23.438Z,3.50
2019-02-27T15:05:51.855Z,3.70
2019-02-27T15:08:20.101Z,4.20
2019-02-27T15:10:47.931Z,3.92
2019-02-27T15:13:16.634Z,4.40
2019-02-27T15:15:46.076Z,4.05
2019-02-27T15:18:25.240Z,4.17
2019-02-27T15:20:53.577Z,3.92
2019-02-27T15:23:24.554Z,3.98
2019-02-27T15:25:58.350Z,4.03
2019-02-27T15:28:26.192Z,4.28
2019-02-27T15:30:54.803Z,4.17
2019-02-27T15:33:23.073Z,4.42
2019-02-27T15:35:55.061Z,4.30
2019-02-27T15:38:21.794Z,5.87
2019-02-27T15:40:49.332Z,5.70
2019-02-27T15:43:18.209Z,6.45
2019-02-27T15:45:48.041Z,7.12
2019-02-27T15:48:23.418Z,8.03
2019-02-27T15:51:03.904Z,7.50
2019-02-27T15:53:32.379Z,6.70
2019-02-27T15:56:00.339Z,6.12
2019-02-27T15:58:28.790Z,7.22
2019-02-27T16:01:04.860Z,6.50
2019-02-27T16:03:33.181Z,6.45
2019-02-27T16:06:04.950Z,6.65
2019-02-27T16:08:37.104Z,7.40
2019-02-27T16:11:05.740Z,7.65
2019-02-27T16:13:34.710Z,8.45
2019-02-27T16:16:14.383Z,9.08
2019-02-27T16:18:42.644Z,8.35
2019-02-27T16:21:12.136Z,8.23
2019-02-27T16:23:40.083Z,9.17
2019-02-27T16:26:08.379Z,8.03
2019-02-27T16:28:37.066Z,7.43
2019-02-27T16:31:06.166Z,6.30
2019-02-27T16:33:42.015Z,6.80
2019-02-27T16:36:15.212Z,6.40
2019-02-27T16:38:48.121Z,6.27
2019-02-27T16:43:56.024Z,5.73
2019-02-27T16:46:43.509Z,6.17
2019-02-27T16:49:09.642Z,7.60
2019-02-27T16:51:42.036Z,7.77
2019-02-27T16:54:10.545Z,7.33
2019-02-27T16:56:38.355Z,6.07
2019-02-27T16:59:08.268Z,4.97
2019-02-27T17:01:43.068Z,3.73
2019-02-27T17:04:11.470Z,3.30
2019-02-27T17:06:39.826Z,3.37
2019-02-27T17:09:10.075Z,3.13
2019-02-27T17:11:46.136Z,3.23
2019-02-27T17:14:14.420Z,3.72
2019-02-27T17:16:44.892Z,3.95
2019-02-27T17:19:19.395Z,3.40
2019-02-27T17:21:47.641Z,3.50
2019-02-27T17:24:20.970Z,3.90
2019-02-27T17:26:56.511Z,3.70
2019-02-27T17:29:26.498Z,3.23
2019-02-27T17:32:00.276Z,4.20
2019-02-27T17:34:29.004Z,5.57
2019-02-27T17:36:57.294Z,4.63
2019-02-27T17:39:28.934Z,5.43
2019-02-27T17:41:55.891Z,7.17
2019-02-27T17:44:24.296Z,7.17
2019-02-27T17:47:11.507Z,7.87
2019-02-27T17:49:39.710Z,9.63
2019-02-27T17:52:11.385Z,10.00
2019-02-27T17:54:44.130Z,13.47
2019-02-27T17:57:11.998Z,28.20
2019-02-27T17:59:42.391Z,17.53
2019-02-27T18:02:11.794Z,14.07
2019-02-27T18:04:40.111Z,15.13
2019-02-27T18:07:09.789Z,16.77
2019-02-27T18:09:40.383Z,13.93
2019-02-27T18:12:15.320Z,15.73
2019-02-27T18:14:45.469Z,13.90
2019-02-27T18:17:23.106Z,14.17
2019-02-27T18:20:02.642Z,15.37
2019-02-27T18:22:31.244Z,13.37
2019-02-27T18:24:59.887Z,10.77
2019-02-27T18:27:28.221Z,9.40
2019-02-27T18:29:57.003Z,7.93
2019-02-27T18:32:25.332Z,8.37
2019-02-27T18:34:54.641Z,9.83
2019-02-27T18:37:31.021Z,10.67
2019-02-27T18:39:59.649Z,10.20
2019-02-27T18:42:27.913Z,10.77
2019-02-27T18:44:56.206Z,10.67
2019-02-27T18:47:24.861Z,10.00
2019-02-27T18:49:53.065Z,9.73
2019-02-27T18:52:21.784Z,9.50
2019-02-27T18:54:50.419Z,8.50
2019-02-27T18:57:19.060Z,8.77
2019-02-27T18:59:47.275Z,9.03
2019-02-27T19:02:19.659Z,9.07
2019-02-27T19:04:45.751Z,9.13
2019-02-27T19:07:17.321Z,9.67
2019-02-27T19:09:51.561Z,9.33
2019-02-27T19:12:25.054Z,8.70
2019-02-27T19:14:56.437Z,10.00
2019-02-27T19:17:29.037Z,10.27
2019-02-27T19:20:01.209Z,10.87
2019-02-27T19:22:29.410Z,11.40
2019-02-27T19:25:00.149Z,11.93
2019-02-27T19:27:28.117Z,13.93
2019-02-27T19:29:56.867Z,11.43
2019-02-27T19:32:25.657Z,11.00
2019-02-27T19:34:53.908Z,9.97
2019-02-27T19:37:22.683Z,35.83
2019-02-27T19:39:53.350Z,37.40
2019-02-27T19:42:27.319Z,32.10
2019-02-27T19:44:55.539Z,42.67
2019-02-27T19:47:23.786Z,24.30
2019-02-27T19:49:52.357Z,18.63
2019-02-27T19:52:20.586Z,21.60
2019-02-27T19:54:52.638Z,22.57
2019-02-27T19:57:19.409Z,12.67
2019-02-27T19:59:48.062Z,12.83
2019-02-27T20:02:21.408Z,11.97
2019-02-27T20:04:53.501Z,11.60
2019-02-27T20:07:21.812Z,12.23
2019-02-27T20:09:51.370Z,12.20
2019-02-27T20:12:26.171Z,12.03
2019-02-27T20:14:54.921Z,12.33
2019-02-27T20:17:23.325Z,11.47
2019-02-27T20:19:51.646Z,12.10
2019-02-27T20:22:20.002Z,10.07
2019-02-27T20:24:48.785Z,10.50
2019-02-27T20:27:17.099Z,12.03
2019-02-27T20:29:45.979Z,13.10
2019-02-27T20:32:13.536Z,13.00
2019-02-27T20:34:42.625Z,10.87
2019-02-27T20:37:18.967Z,10.70
2019-02-27T20:39:47.411Z,10.73
2019-02-27T20:42:16.191Z,11.10
2019-02-27T20:44:44.840Z,10.47
2019-02-27T20:47:13.054Z,10.73
2019-02-27T20:49:41.329Z,12.73
2019-02-27T20:52:14.709Z,11.63
2019-02-27T20:54:46.257Z,11.50
2019-02-27T20:57:15.028Z,12.00
2019-02-27T20:59:43.631Z,11.80
2019-02-27T21:02:11.942Z,12.27
2019-02-27T21:04:40.595Z,10.43
2019-02-27T21:07:09.231Z,10.60
2019-02-27T21:09:37.253Z,10.63
2019-02-27T21:12:07.253Z,9.10
2019-02-27T21:14:35.124Z,11.17
2019-02-27T21:17:03.755Z,12.03
2019-02-27T21:19:33.887Z,14.73
2019-02-27T21:22:03.026Z,12.67
2019-02-27T21:24:31.516Z,12.67
2019-02-27T21:27:00.867Z,12.20
2019-02-27T21:29:30.088Z,12.97
2019-02-27T21:32:01.632Z,14.70
2019-02-27T21:34:29.429Z,13.67
2019-02-27T21:36:58.004Z,16.13
2019-02-27T21:40:06.642Z,14.33
2019-02-27T21:42:35.422Z,13.97
2019-02-27T21:45:04.582Z,13.90
2019-02-27T21:47:53.106Z,13.23
2019-02-27T21:50:33.573Z,11.93
2019-02-27T21:53:02.121Z,10.27
2019-02-27T21:55:30.607Z,9.90
2019-02-27T21:57:59.444Z,11.37
2019-02-27T22:03:44.776Z,15.10
2019-02-27T22:06:13.654Z,16.00
2019-02-27T22:08:41.919Z,16.67
2019-02-27T22:11:10.449Z,22.30
2019-02-27T22:19:19.988Z,13.27
2019-02-27T22:21:55.149Z,21.07
2019-02-27T22:24:23.539Z,18.87
2019-02-27T22:26:52.229Z,16.87
2019-02-27T22:30:01.138Z,14.30
2019-02-27T22:32:29.877Z,13.60
2019-02-27T22:35:39.016Z,12.40
2019-02-27T22:38:26.827Z,14.90
2019-02-27T22:41:03.701Z,15.07
2019-02-27T22:43:34.528Z,18.20
2019-02-27T22:46:09.935Z,17.50
2019-02-27T22:48:38.438Z,14.20
2019-02-27T22:51:06.718Z,14.40
2019-02-27T22:53:35.013Z,14.07
2019-02-27T22:56:03.784Z,14.40
2019-02-27T22:58:32.462Z,13.47
2019-02-27T23:01:42.038Z,14.87
2019-02-27T23:04:10.805Z,13.53
2019-02-27T23:06:39.071Z,13.63
2019-02-27T23:12:30.280Z,12.97
2019-02-27T23:14:58.548Z,13.70
2019-02-27T23:17:27.180Z,15.40
2019-02-27T23:19:55.422Z,16.53
2019-02-27T23:22:24.069Z,11.60
2019-02-27T23:24:52.734Z,12.27
2019-02-27T23:27:20.921Z,12.43
2019-02-27T23:29:49.485Z,11.60
2019-02-27T23:32:18.034Z,11.37
2019-02-27T23:34:46.660Z,12.60
2019-02-27T23:37:14.522Z,11.50
2019-02-27T23:39:42.892Z,13.37
2019-02-27T23:45:20.228Z,13.10
2019-02-27T23:47:48.445Z,14.17
2019-02-27T23:50:16.756Z,14.20
2019-02-27T23:52:45.290Z,14.90
2019-02-27T23:55:13.126Z,15.23
2019-02-27T23:57:40.642Z,14.90
